CPX321 Details

Departure: Kansas City International Airport (KMCI)
Arrival: Chicago/Rockford International Airport (KRFD)
Route: ROYAL9 BODYN MZV RFD


Current Weather Information
KMCI 221053Z 29006KT 10SM CLR 04/M01 A3017 RMK AO2 SLP217 T00441011
KRFD 221054Z 31006KT 10SM CLR 01/M02 A3002 RMK AO2 SLP171 T00111017